Time;durP1;ratioP1;P1;durP2;ratioP2;P2;SDS_P1;SDS_P2;PMS_P1;PMS_P2;Temp;Humidity;BMP_temperature;BMP_pressure;BME280_temperature;BME280_humidity;BME280_pressure;Samples;Min_cycle;Max_cycle;Signal;HPM_P1;HPM_P2
2021/12/16 00:09:11;;;;;;;122.60;55.30;;;8.80;99.90;;;;;;5054741;28;20052;-75
2021/12/16 00:33:40;;;;;;;117.07;54.55;;;8.80;99.90;;;;;;5130946;28;20031;-75
2021/12/16 00:36:09;;;;;;;127.00;55.55;;;8.80;99.90;;;;;;5132296;28;20094;-75
2021/12/16 00:38:36;;;;;;;120.60;54.58;;;8.80;99.90;;;;;;5130422;28;20015;-74
2021/12/16 00:41:03;;;;;;;121.45;54.42;;;8.80;99.90;;;;;;5113433;28;20034;-74
2021/12/16 00:43:52;;;;;;;128.88;56.38;;;8.80;99.90;;;;;;5131882;27;20517;-74
2021/12/16 00:46:31;;;;;;;124.57;55.70;;;8.80;99.90;;;;;;5130418;28;20369;-75
2021/12/16 00:54:29;;;;;;;126.43;57.03;;;8.80;99.90;;;;;;5131221;28;20061;-74
2021/12/16 00:57:00;;;;;;;124.40;57.20;;;8.80;99.90;;;;;;5130045;28;20388;-74
2021/12/16 00:59:31;;;;;;;117.25;54.15;;;8.80;99.90;;;;;;5098204;28;20030;-75
2021/12/16 01:02:06;;;;;;;127.13;57.38;;;8.70;99.90;;;;;;5131730;27;20102;-74
2021/12/16 01:07:50;;;;;;;135.52;57.05;;;8.70;99.90;;;;;;5131006;28;20012;-74
2021/12/16 01:33:34;;;;;;;128.60;54.25;;;8.70;99.90;;;;;;5130945;28;20066;-74
2021/12/16 01:35:38;;;;;;;136.90;58.38;;;8.70;99.90;;;;;;5115684;28;20582;-74
2021/12/16 01:38:28;;;;;;;136.93;56.85;;;8.80;99.90;;;;;;5117434;28;20024;-74
2021/12/16 01:41:37;;;;;;;129.77;56.20;;;8.80;99.90;;;;;;5116562;28;20103;-75
2021/12/16 01:46:37;;;;;;;129.48;56.90;;;8.80;99.90;;;;;;5116536;28;20080;-74
2021/12/16 01:49:23;;;;;;;131.52;57.20;;;8.80;99.90;;;;;;5116917;28;20177;-74
2021/12/16 01:57:24;;;;;;;128.07;56.75;;;8.80;99.90;;;;;;5070693;28;20390;-74
2021/12/16 01:59:59;;;;;;;136.00;56.53;;;8.80;99.90;;;;;;5053943;28;20044;-74
2021/12/16 02:02:37;;;;;;;137.20;57.63;;;8.70;99.90;;;;;;5071250;28;20098;-73
2021/12/16 02:05:20;;;;;;;143.82;59.75;;;8.70;99.90;;;;;;5071216;28;20462;-73
2021/12/16 02:08:15;;;;;;;137.05;57.63;;;8.60;99.90;;;;;;5071195;28;20036;-73
2021/12/16 02:10:40;;;;;;;139.02;60.05;;;8.60;99.90;;;;;;5069373;28;20119;-74
2021/12/16 02:27:26;;;;;;;138.93;55.72;;;8.60;99.90;;;;;;5070244;28;20412;-74
2021/12/16 02:35:30;;;;;;;152.80;62.83;;;8.30;99.90;;;;;;5069846;28;20055;-73
2021/12/16 02:37:58;;;;;;;160.60;62.15;;;8.30;99.90;;;;;;5069273;28;20013;-73
2021/12/16 02:40:24;;;;;;;162.60;64.13;;;8.30;99.90;;;;;;5069272;28;20354;-74
2021/12/16 02:42:55;;;;;;;162.13;63.15;;;8.40;99.90;;;;;;5070460;28;20086;-73
2021/12/16 02:48:41;;;;;;;158.88;63.65;;;8.50;99.90;;;;;;5068721;28;20195;-74
2021/12/16 02:50:54;;;;;;;165.48;62.22;;;8.50;99.90;;;;;;5070173;28;20104;-73
2021/12/16 02:53:20;;;;;;;161.68;62.50;;;8.40;99.90;;;;;;5051694;28;20127;-73
2021/12/16 02:55:46;;;;;;;154.60;62.80;;;8.40;99.90;;;;;;5068411;28;20091;-74
2021/12/16 02:58:13;;;;;;;158.95;61.88;;;8.40;99.90;;;;;;5069863;28;20147;-74
2021/12/16 03:00:43;;;;;;;162.77;64.68;;;8.50;99.90;;;;;;5068967;28;20104;-74
2021/12/16 03:03:09;;;;;;;159.20;62.25;;;8.50;99.90;;;;;;5070018;28;20032;-74
2021/12/16 03:05:35;;;;;;;156.07;61.25;;;8.50;99.90;;;;;;5056624;28;20032;-74
2021/12/16 03:08:01;;;;;;;156.05;61.55;;;8.50;99.90;;;;;;5055604;28;20075;-74
2021/12/16 03:11:00;;;;;;;161.07;62.53;;;8.50;99.90;;;;;;5055269;28;20028;-74
2021/12/16 03:13:27;;;;;;;155.00;59.47;;;8.50;99.90;;;;;;5055939;28;20036;-74
2021/12/16 03:16:05;;;;;;;138.90;59.03;;;8.50;99.90;;;;;;5055276;28;20532;-74
2021/12/16 03:18:46;;;;;;;150.45;59.13;;;8.60;99.90;;;;;;5056542;28;20025;-74
2021/12/16 03:21:20;;;;;;;142.48;60.35;;;8.50;99.90;;;;;;5056512;28;20021;-74
2021/12/16 03:29:42;;;;;;;139.20;56.85;;;8.60;99.90;;;;;;5054643;28;20410;-74
2021/12/16 03:35:14;;;;;;;136.70;54.65;;;8.60;99.90;;;;;;5054592;28;20055;-74
2021/12/16 03:37:41;;;;;;;137.02;56.85;;;8.60;99.90;;;;;;5055662;28;20025;-74
2021/12/16 03:40:11;;;;;;;136.60;56.10;;;8.60;99.90;;;;;;5055000;28;20052;-74
2021/12/16 03:42:41;;;;;;;142.63;58.05;;;8.60;99.90;;;;;;5037977;28;20120;-74
2021/12/16 03:46:25;;;;;;;141.25;57.40;;;8.60;99.90;;;;;;5056064;28;20060;-74
2021/12/16 03:48:04;;;;;;;136.80;57.08;;;8.60;99.90;;;;;;5055325;28;20056;-74
2021/12/16 03:50:29;;;;;;;142.32;57.65;;;8.60;99.90;;;;;;5037983;28;20033;-75
2021/12/16 03:52:55;;;;;;;135.52;55.78;;;8.60;99.90;;;;;;5055435;28;20040;-75
2021/12/16 03:55:21;;;;;;;143.02;59.08;;;8.60;99.90;;;;;;5055879;28;20025;-75
2021/12/16 03:57:47;;;;;;;145.30;57.35;;;8.60;99.90;;;;;;5054083;28;20029;-74
2021/12/16 04:00:21;;;;;;;143.38;59.83;;;8.50;99.90;;;;;;5055497;28;20028;-74
2021/12/16 04:02:47;;;;;;;144.20;57.97;;;8.60;99.90;;;;;;5054199;28;20386;-75
2021/12/16 04:05:14;;;;;;;137.32;56.33;;;8.60;99.90;;;;;;5054750;28;20029;-75
2021/12/16 04:07:40;;;;;;;146.32;58.88;;;8.60;99.90;;;;;;5055395;28;20029;-74
2021/12/16 04:10:11;;;;;;;150.05;57.35;;;8.60;99.90;;;;;;5037211;28;20021;-75
2021/12/16 04:12:37;;;;;;;138.68;55.25;;;8.50;99.90;;;;;;5054376;28;20082;-74
2021/12/16 04:15:07;;;;;;;144.48;56.25;;;8.50;99.90;;;;;;5055235;28;20013;-74
2021/12/16 04:17:34;;;;;;;155.77;57.92;;;8.50;99.90;;;;;;5036211;28;20087;-74
2021/12/16 04:20:04;;;;;;;146.25;55.70;;;8.50;99.90;;;;;;5055152;28;20017;-73
2021/12/16 04:22:36;;;;;;;143.23;55.72;;;8.50;99.90;;;;;;5055346;28;20021;-74
2021/12/16 04:25:07;;;;;;;141.45;56.47;;;8.50;99.90;;;;;;5055307;28;20031;-73
2021/12/16 04:27:34;;;;;;;135.60;54.13;;;8.50;99.90;;;;;;5055240;28;20021;-74
2021/12/16 04:30:00;;;;;;;137.35;53.88;;;8.50;99.90;;;;;;5053763;28;20036;-74
2021/12/16 04:32:26;;;;;;;144.68;54.25;;;8.60;99.90;;;;;;5055086;28;20075;-74
2021/12/16 04:34:51;;;;;;;128.25;52.92;;;8.60;99.90;;;;;;5036622;28;20053;-73
2021/12/16 04:37:17;;;;;;;135.35;54.97;;;8.50;99.90;;;;;;5053284;28;20108;-74
2021/12/16 04:39:44;;;;;;;137.40;52.72;;;8.50;99.90;;;;;;5036565;28;20027;-75
2021/12/16 04:42:12;;;;;;;139.77;53.65;;;8.50;99.90;;;;;;5054721;28;20446;-75
2021/12/16 04:44:40;;;;;;;132.25;52.15;;;8.50;99.90;;;;;;5054981;28;20112;-74
2021/12/16 04:47:07;;;;;;;137.38;53.72;;;8.50;99.90;;;;;;5053752;28;20079;-74
2021/12/16 04:49:33;;;;;;;134.73;52.58;;;8.50;99.90;;;;;;5054508;28;20021;-74
2021/12/16 04:52:02;;;;;;;141.52;53.38;;;8.50;99.90;;;;;;5036412;28;20090;-74
2021/12/16 04:54:29;;;;;;;144.30;53.67;;;8.50;99.90;;;;;;5054669;28;20082;-74
2021/12/16 04:56:57;;;;;;;140.15;53.50;;;8.50;99.90;;;;;;5052919;28;20082;-74
2021/12/16 04:59:25;;;;;;;139.98;53.03;;;8.50;99.90;;;;;;5054661;28;20013;-75
2021/12/16 05:01:58;;;;;;;144.95;54.47;;;8.50;99.90;;;;;;5054345;28;20510;-74
2021/12/16 05:04:24;;;;;;;142.02;55.17;;;8.50;99.90;;;;;;5054320;28;20033;-74
2021/12/16 05:06:51;;;;;;;148.68;54.65;;;8.50;99.90;;;;;;5053126;28;20021;-74
2021/12/16 05:09:51;;;;;;;149.00;54.10;;;8.60;99.90;;;;;;5054219;28;20108;-74
2021/12/16 05:12:05;;;;;;;141.50;53.58;;;8.60;99.90;;;;;;5052720;28;20025;-75
2021/12/16 05:14:31;;;;;;;150.13;54.50;;;8.60;99.90;;;;;;5052930;28;20031;-74
2021/12/16 05:16:56;;;;;;;152.13;56.50;;;8.60;99.90;;;;;;5035963;28;20021;-74
2021/12/16 05:19:23;;;;;;;144.48;53.67;;;8.60;99.90;;;;;;5053767;28;20423;-74
2021/12/16 05:21:56;;;;;;;148.95;56.20;;;8.60;99.90;;;;;;5054279;28;20468;-75
2021/12/16 05:24:28;;;;;;;147.93;57.60;;;8.60;99.90;;;;;;5052925;28;20025;-74
2021/12/16 05:26:58;;;;;;;152.13;58.40;;;8.60;99.90;;;;;;5052946;28;20108;-74
2021/12/16 05:29:24;;;;;;;152.70;56.22;;;8.60;99.90;;;;;;5053193;28;20025;-75
2021/12/16 05:31:51;;;;;;;149.25;57.03;;;8.70;99.90;;;;;;5054124;28;20025;-74
2021/12/16 05:34:17;;;;;;;149.77;56.58;;;8.70;99.90;;;;;;5053995;28;20021;-74
2021/12/16 05:36:44;;;;;;;148.25;57.33;;;8.70;99.90;;;;;;5054077;28;20021;-74
2021/12/16 05:39:10;;;;;;;151.38;58.17;;;8.70;99.90;;;;;;5035774;28;20367;-75
2021/12/16 05:41:36;;;;;;;159.20;58.85;;;8.60;99.90;;;;;;5035679;28;20021;-74
2021/12/16 05:44:02;;;;;;;149.02;58.97;;;8.70;99.90;;;;;;5052214;28;20021;-74
2021/12/16 05:46:28;;;;;;;155.85;57.75;;;8.70;99.90;;;;;;5052228;28;20029;-74
2021/12/16 05:48:55;;;;;;;151.93;58.17;;;8.70;99.90;;;;;;5052513;28;20489;-75
2021/12/16 05:51:26;;;;;;;162.90;58.00;;;8.60;99.90;;;;;;5035395;28;20028;-74
2021/12/16 05:53:53;;;;;;;149.68;58.92;;;8.60;99.90;;;;;;5053206;28;20125;-74
2021/12/16 05:56:19;;;;;;;162.77;59.38;;;8.60;99.90;;;;;;5052398;28;20025;-74
2021/12/16 05:58:46;;;;;;;150.93;59.30;;;8.60;99.90;;;;;;5052077;28;20057;-74
2021/12/16 06:01:17;;;;;;;152.73;59.13;;;8.60;99.90;;;;;;5053237;28;20094;-74
2021/12/16 06:03:43;;;;;;;153.95;58.83;;;8.60;99.90;;;;;;5052416;28;20371;-74
2021/12/16 06:06:09;;;;;;;156.75;61.25;;;8.60;99.90;;;;;;5053776;28;20029;-74
2021/12/16 06:08:36;;;;;;;152.25;59.00;;;8.60;99.90;;;;;;5035927;28;20060;-74
2021/12/16 06:13:38;;;;;;;163.80;62.95;;;8.60;99.90;;;;;;5053298;28;20025;-74
2021/12/16 06:27:16;;;;;;;161.75;60.03;;;8.70;99.90;;;;;;5130629;28;20015;-75
2021/12/16 06:29:45;;;;;;;152.25;58.05;;;8.70;99.90;;;;;;5132332;27;20027;-75
2021/12/16 06:32:11;;;;;;;167.07;60.15;;;8.70;99.90;;;;;;5131974;27;20457;-75
2021/12/16 06:34:37;;;;;;;148.23;57.05;;;8.70;99.90;;;;;;5130390;28;20023;-75
2021/12/16 06:37:04;;;;;;;163.02;59.92;;;8.70;99.90;;;;;;5113241;28;20030;-75
2021/12/16 06:39:30;;;;;;;157.15;57.97;;;8.70;99.90;;;;;;5132117;27;20376;-75
2021/12/16 06:41:55;;;;;;;161.77;59.97;;;8.70;99.90;;;;;;5113097;28;20023;-75
2021/12/16 06:44:27;;;;;;;168.82;60.28;;;8.70;99.90;;;;;;5113208;28;20068;-75
2021/12/16 06:46:59;;;;;;;164.10;61.60;;;8.70;99.90;;;;;;5130561;28;20434;-75
2021/12/16 06:49:25;;;;;;;167.68;61.90;;;8.70;99.90;;;;;;5114288;28;20055;-75
2021/12/16 06:51:56;;;;;;;158.57;61.97;;;8.70;99.90;;;;;;5131492;27;20027;-75
2021/12/16 06:54:29;;;;;;;174.18;63.63;;;8.70;99.90;;;;;;5130504;28;20416;-75
2021/12/16 06:57:03;;;;;;;;;;;8.70;99.90;;;;;;5114204;28;20073;-75
2021/12/16 06:59:33;;;;;;;161.00;59.05;;;8.60;99.90;;;;;;5129908;28;19904;-75
2021/12/16 07:02:10;;;;;;;173.65;62.28;;;8.60;99.90;;;;;;5130221;28;20433;-74
2021/12/16 07:04:37;;;;;;;171.48;64.75;;;8.70;99.90;;;;;;5130204;28;20019;-75
2021/12/16 07:07:06;;;;;;;178.20;65.20;;;8.70;99.90;;;;;;5130297;28;20118;-75
2021/12/16 07:09:32;;;;;;;173.60;63.15;;;8.70;99.90;;;;;;5129683;28;20423;-75
2021/12/16 07:11:59;;;;;;;179.23;63.15;;;8.70;99.90;;;;;;5131258;28;20015;-75
2021/12/16 07:14:35;;;;;;;185.07;65.72;;;8.70;99.90;;;;;;5131251;27;20081;-75
2021/12/16 07:17:07;;;;;;;170.95;63.47;;;8.70;99.90;;;;;;5129503;28;20035;-75
2021/12/16 07:19:33;;;;;;;180.93;64.53;;;8.70;99.90;;;;;;5130085;28;20424;-74
2021/12/16 07:21:58;;;;;;;178.35;64.90;;;8.70;99.90;;;;;;5131149;28;20020;-75
2021/12/16 07:24:24;;;;;;;180.05;63.63;;;8.70;99.90;;;;;;5112620;28;20083;-75
2021/12/16 07:26:49;;;;;;;183.70;64.03;;;8.70;99.90;;;;;;5112201;28;20035;-74
2021/12/16 07:29:15;;;;;;;179.23;64.57;;;8.70;99.90;;;;;;5121950;28;20537;-75
2021/12/16 07:31:41;;;;;;;175.80;66.55;;;8.70;99.90;;;;;;5115717;28;20024;-74
2021/12/16 07:34:09;;;;;;;191.18;67.65;;;8.70;99.90;;;;;;5098652;28;20094;-75
2021/12/16 07:36:38;;;;;;;180.85;63.97;;;8.80;99.90;;;;;;5115788;28;20033;-75
2021/12/16 07:39:07;;;;;;;176.40;65.28;;;8.70;99.90;;;;;;5116786;27;20093;-75
2021/12/16 07:41:33;;;;;;;179.60;67.40;;;8.80;99.90;;;;;;5124226;27;20015;-75
2021/12/16 07:44:16;;;;;;;195.48;69.82;;;8.70;99.90;;;;;;5112247;27;20026;-75
2021/12/16 07:47:00;;;;;;;179.27;66.97;;;8.80;99.90;;;;;;5116412;27;20031;-74
2021/12/16 07:49:31;;;;;;;188.25;68.13;;;8.80;99.90;;;;;;5116257;28;20047;-75
2021/12/16 07:51:59;;;;;;;186.40;65.30;;;8.80;99.90;;;;;;5117447;27;20019;-74
2021/12/16 07:54:25;;;;;;;174.43;66.90;;;8.80;99.90;;;;;;5110128;27;20110;-75
2021/12/16 07:56:54;;;;;;;183.55;65.05;;;8.80;99.90;;;;;;5118335;27;20019;-75
2021/12/16 07:59:23;;;;;;;168.45;63.60;;;8.80;99.90;;;;;;5107070;27;20015;-75
2021/12/16 08:01:49;;;;;;;175.25;63.22;;;8.80;99.90;;;;;;5116622;27;20456;-75
2021/12/16 08:04:21;;;;;;;175.05;63.10;;;8.80;99.90;;;;;;5115043;28;20040;-75
2021/12/16 08:06:49;;;;;;;184.40;65.78;;;8.80;99.90;;;;;;5114601;28;20020;-75
2021/12/16 08:09:15;;;;;;;164.43;63.88;;;8.80;99.90;;;;;;5118004;27;20472;-75
2021/12/16 08:11:42;;;;;;;175.00;64.22;;;8.80;99.90;;;;;;5093576;28;20036;-75
2021/12/16 08:14:09;;;;;;;178.50;63.92;;;8.80;99.90;;;;;;5111071;28;20024;-75
2021/12/16 08:16:35;;;;;;;180.52;64.72;;;8.80;99.90;;;;;;5099082;28;20069;-75
2021/12/16 08:19:02;;;;;;;172.07;61.92;;;8.80;99.90;;;;;;5097707;28;20456;-74
2021/12/16 08:21:29;;;;;;;171.63;63.13;;;8.90;99.90;;;;;;5117101;27;20133;-75
2021/12/16 08:23:58;;;;;;;186.02;66.10;;;8.90;99.90;;;;;;5109743;28;20051;-75
2021/12/16 08:26:24;;;;;;;178.85;65.88;;;8.90;99.90;;;;;;5119107;27;20019;-75
2021/12/16 08:28:50;;;;;;;175.15;64.32;;;8.90;99.90;;;;;;5114367;28;20020;-75
2021/12/16 08:31:16;;;;;;;173.50;63.35;;;8.90;99.90;;;;;;5111270;28;20170;-75
2021/12/16 08:33:42;;;;;;;168.55;62.20;;;8.90;99.90;;;;;;5095968;28;20538;-75
2021/12/16 08:36:09;;;;;;;176.07;64.80;;;8.90;99.90;;;;;;5109650;27;20354;-75
2021/12/16 08:38:37;;;;;;;176.20;63.97;;;8.90;99.90;;;;;;5108604;28;20050;-75
2021/12/16 08:41:09;;;;;;;189.52;64.88;;;8.90;99.90;;;;;;5108589;27;20016;-75
2021/12/16 08:43:36;;;;;;;184.68;63.85;;;8.90;99.90;;;;;;5111714;27;20024;-75
2021/12/16 08:46:03;;;;;;;173.65;62.47;;;8.90;99.90;;;;;;5115343;28;20023;-74
2021/12/16 08:48:28;;;;;;;183.80;65.43;;;8.90;99.90;;;;;;5114655;28;20020;-75
2021/12/16 08:50:54;;;;;;;176.13;64.18;;;8.90;99.90;;;;;;5114332;28;20031;-75
2021/12/16 08:53:22;;;;;;;172.73;62.70;;;9.00;99.90;;;;;;5108592;28;20031;-75
2021/12/16 08:55:51;;;;;;;178.70;64.13;;;9.00;99.90;;;;;;5114594;28;20346;-75
2021/12/16 08:58:16;;;;;;;175.95;62.05;;;9.00;99.90;;;;;;5109666;28;20020;-75
2021/12/16 09:00:49;;;;;;;166.73;62.53;;;9.10;99.90;;;;;;5071863;28;20023;-74
2021/12/16 09:03:15;;;;;;;165.45;61.47;;;9.10;99.90;;;;;;5093543;28;20028;-75
2021/12/16 09:05:40;;;;;;;166.15;61.20;;;9.10;99.90;;;;;;5093471;28;20028;-75
2021/12/16 09:08:06;;;;;;;165.40;62.33;;;9.10;99.90;;;;;;5111942;28;20123;-75
2021/12/16 09:10:34;;;;;;;167.82;63.22;;;9.10;99.90;;;;;;5106539;28;20455;-75
2021/12/16 09:13:02;;;;;;;163.65;62.80;;;9.10;99.90;;;;;;5102059;27;20053;-75
2021/12/16 09:15:32;;;;;;;170.65;61.67;;;9.20;99.90;;;;;;5113392;28;20062;-75
2021/12/16 09:17:59;;;;;;;157.45;61.22;;;9.20;99.90;;;;;;5117309;27;20040;-75
2021/12/16 09:20:25;;;;;;;165.25;62.05;;;9.20;99.90;;;;;;5106365;28;20110;-75
2021/12/16 09:22:51;;;;;;;153.68;61.67;;;9.20;99.90;;;;;;5106252;28;20386;-74
2021/12/16 09:25:17;;;;;;;167.38;62.22;;;9.30;99.90;;;;;;5112048;28;20020;-75
2021/12/16 09:27:43;;;;;;;166.93;62.55;;;9.30;99.90;;;;;;5109051;27;20031;-74
2021/12/16 09:30:13;;;;;;;162.15;63.33;;;9.30;99.90;;;;;;5104209;28;20032;-75
2021/12/16 09:32:38;;;;;;;177.77;63.10;;;9.20;99.90;;;;;;5112404;28;20126;-75
2021/12/16 09:35:07;;;;;;;170.10;64.13;;;9.30;99.90;;;;;;5113672;28;20055;-75
2021/12/16 09:37:32;;;;;;;174.82;63.88;;;9.30;99.90;;;;;;5097703;28;20120;-74
2021/12/16 09:39:58;;;;;;;171.40;64.40;;;9.30;99.90;;;;;;5090711;27;20098;-74
2021/12/16 09:42:26;;;;;;;173.77;65.53;;;9.30;99.90;;;;;;5101395;28;20024;-74
2021/12/16 09:44:53;;;;;;;178.00;65.10;;;9.30;99.90;;;;;;5106082;28;20024;-75
2021/12/16 09:47:21;;;;;;;188.10;67.93;;;9.30;99.90;;;;;;5108220;28;20036;-74
2021/12/16 09:49:48;;;;;;;185.93;66.13;;;9.30;99.90;;;;;;5102622;28;20016;-75
2021/12/16 09:52:14;;;;;;;179.27;64.72;;;9.30;99.90;;;;;;5102977;28;20122;-74
2021/12/16 09:54:42;;;;;;;169.80;65.63;;;9.30;99.90;;;;;;5113983;28;20149;-74
2021/12/16 09:57:09;;;;;;;174.68;63.47;;;9.30;99.90;;;;;;5107266;28;20028;-74
2021/12/16 09:59:34;;;;;;;170.13;63.53;;;9.30;99.90;;;;;;5095714;28;20023;-74
2021/12/16 10:02:04;;;;;;;163.15;64.30;;;9.30;99.90;;;;;;5108851;28;20095;-74
2021/12/16 10:04:31;;;;;;;171.85;64.65;;;9.30;99.90;;;;;;5094162;28;20381;-74
2021/12/16 10:07:00;;;;;;;169.48;65.03;;;9.30;99.90;;;;;;5097807;28;20468;-74
2021/12/16 10:09:27;;;;;;;161.60;61.50;;;9.40;99.90;;;;;;5112262;28;20415;-75
2021/12/16 10:11:54;;;;;;;156.32;59.28;;;9.40;99.90;;;;;;5110609;27;20098;-74
2021/12/16 10:17:24;;;;;;;149.00;57.85;;;9.40;99.90;;;;;;5122727;27;20039;-73
2021/12/16 10:19:51;;;;;;;147.00;57.13;;;9.50;99.90;;;;;;5130463;27;20089;-74
2021/12/16 10:22:26;;;;;;;150.65;59.65;;;9.50;99.90;;;;;;5111448;27;20103;-73
2021/12/16 10:24:55;;;;;;;148.50;56.22;;;9.60;99.90;;;;;;5125166;28;20494;-74
2021/12/16 10:27:24;;;;;;;152.35;61.47;;;9.50;99.90;;;;;;5107213;28;20031;-74
2021/12/16 10:29:55;;;;;;;140.30;56.85;;;9.50;99.90;;;;;;5113473;28;20012;-74
2021/12/16 10:32:41;;;;;;;150.70;59.83;;;9.60;99.90;;;;;;5109575;28;20110;-74
2021/12/16 10:35:14;;;;;;;154.93;59.78;;;9.60;99.90;;;;;;5110852;28;20024;-74
2021/12/16 10:37:46;;;;;;;156.32;60.55;;;9.60;99.90;;;;;;5111363;28;20070;-74
2021/12/16 10:40:43;;;;;;;166.38;60.63;;;9.50;99.90;;;;;;5116448;28;20040;-74
2021/12/16 10:43:16;;;;;;;159.40;61.60;;;9.60;99.90;;;;;;5114262;28;20020;-74
2021/12/16 10:45:46;;;;;;;162.57;59.97;;;9.60;99.90;;;;;;5115767;28;20020;-75
2021/12/16 10:48:34;;;;;;;153.13;59.83;;;9.70;99.90;;;;;;5093902;28;20032;-74
2021/12/16 10:51:20;;;;;;;138.45;56.38;;;9.70;99.90;;;;;;5090821;28;20539;-74
2021/12/16 10:54:15;;;;;;;152.30;57.70;;;9.70;99.90;;;;;;5106008;28;20039;-74
2021/12/16 10:56:48;;;;;;;133.68;53.95;;;9.70;99.90;;;;;;5117467;28;20023;-73
2021/12/16 10:59:19;;;;;;;134.07;55.17;;;9.70;99.90;;;;;;5116044;28;20059;-73
2021/12/16 11:01:51;;;;;;;132.57;55.30;;;9.70;99.90;;;;;;5115238;28;20023;-74
2021/12/16 11:04:41;;;;;;;140.32;56.53;;;9.70;99.90;;;;;;5129265;27;20054;-74
2021/12/16 11:07:17;;;;;;;128.43;53.72;;;9.70;99.90;;;;;;5131022;28;20468;-75
2021/12/16 11:10:06;;;;;;;126.38;52.60;;;9.80;99.90;;;;;;5104773;28;20036;-73
2021/12/16 11:18:14;;;;;;;129.82;51.55;;;9.80;99.90;;;;;;5111488;27;20380;-74
2021/12/16 11:23:27;;;;;;;121.55;50.72;;;9.80;99.90;;;;;;5111790;27;20834;-74
2021/12/16 11:26:00;;;;;;;120.05;50.35;;;9.80;99.90;;;;;;5115321;28;20066;-74
2021/12/16 11:28:36;;;;;;;115.32;49.65;;;9.80;99.90;;;;;;5117491;28;20035;-74
2021/12/16 11:31:05;;;;;;;117.53;49.90;;;9.80;99.90;;;;;;5118546;27;20012;-74
2021/12/16 11:33:38;;;;;;;125.85;51.72;;;9.80;99.90;;;;;;5093188;28;20092;-74
2021/12/16 11:36:17;;;;;;;121.97;51.13;;;9.80;99.90;;;;;;5111457;28;20028;-74
2021/12/16 11:38:51;;;;;;;118.70;51.33;;;9.80;99.90;;;;;;5115852;28;20472;-74
2021/12/16 11:41:23;;;;;;;121.57;51.08;;;9.80;99.90;;;;;;5120532;27;20030;-74
2021/12/16 11:44:12;;;;;;;119.43;50.35;;;9.90;99.90;;;;;;5130275;28;20054;-74
2021/12/16 11:54:50;;;;;;;116.53;49.35;;;9.90;99.90;;;;;;5123458;27;20361;-75
2021/12/16 11:57:24;;;;;;;117.72;52.63;;;10.00;99.90;;;;;;5115645;28;20024;-75
2021/12/16 11:59:58;;;;;;;120.82;53.58;;;10.00;99.90;;;;;;5120862;27;20024;-74
2021/12/16 12:02:46;;;;;;;114.53;48.58;;;10.00;99.90;;;;;;5112302;28;20062;-74
2021/12/16 12:05:35;;;;;;;116.68;50.58;;;10.10;99.90;;;;;;5104411;28;20039;-74
2021/12/16 12:08:23;;;;;;;113.40;50.22;;;10.10;99.90;;;;;;5118893;28;20076;-75
2021/12/16 12:11:01;;;;;;;119.75;51.03;;;10.10;99.90;;;;;;5131743;27;20020;-75
2021/12/16 12:13:34;;;;;;;121.97;51.58;;;10.10;99.90;;;;;;5129853;27;20027;-74
2021/12/16 12:16:10;;;;;;;115.20;50.60;;;10.10;99.90;;;;;;5129396;28;20081;-74
2021/12/16 12:18:48;;;;;;;122.13;52.47;;;10.00;99.90;;;;;;5119476;27;20024;-74
2021/12/16 12:21:22;;;;;;;121.55;51.67;;;10.00;99.90;;;;;;5111286;28;20107;-74
2021/12/16 12:23:51;;;;;;;118.28;50.35;;;10.00;99.90;;;;;;5119619;28;20024;-75
2021/12/16 12:26:18;;;;;;;131.68;53.97;;;10.10;99.90;;;;;;5111720;28;20024;-74
2021/12/16 12:28:47;;;;;;;121.45;50.67;;;10.10;99.90;;;;;;5111188;28;20019;-74
2021/12/16 12:31:16;;;;;;;134.02;54.20;;;10.00;99.90;;;;;;5128739;28;20102;-74
2021/12/16 12:33:41;;;;;;;125.70;53.83;;;10.00;99.90;;;;;;5118527;27;20473;-74
2021/12/16 12:36:08;;;;;;;133.98;54.83;;;10.00;99.90;;;;;;5110845;28;20062;-74
2021/12/16 12:38:36;;;;;;;123.35;51.08;;;10.10;99.90;;;;;;5122428;28;20019;-74
2021/12/16 12:41:04;;;;;;;125.47;52.38;;;10.10;99.90;;;;;;5130098;27;20089;-75
2021/12/16 12:43:33;;;;;;;118.95;50.90;;;10.10;99.90;;;;;;5128890;27;20019;-74
2021/12/16 12:45:59;;;;;;;113.05;47.97;;;10.10;99.90;;;;;;5127357;27;20508;-74
2021/12/16 12:48:25;;;;;;;116.75;49.42;;;10.20;99.90;;;;;;5113010;27;20046;-75
2021/12/16 12:50:57;;;;;;;116.55;50.55;;;10.20;99.90;;;;;;5120111;28;20468;-74
2021/12/16 12:53:46;;;;;;;113.53;48.25;;;10.30;99.90;;;;;;5131197;28;20047;-75
2021/12/16 12:56:27;;;;;;;115.03;50.95;;;10.40;99.90;;;;;;5119757;28;20085;-75
2021/12/16 12:59:06;;;;;;;116.72;48.47;;;10.40;99.90;;;;;;5115042;28;20063;-74
2021/12/16 13:01:36;;;;;;;106.00;48.05;;;10.40;99.90;;;;;;5112228;28;20032;-74
2021/12/16 13:04:10;;;;;;;106.65;47.75;;;10.40;99.90;;;;;;5108294;28;20058;-74
2021/12/16 13:07:04;;;;;;;112.40;49.30;;;10.50;99.90;;;;;;5112452;28;20024;-74
2021/12/16 13:09:48;;;;;;;119.35;50.53;;;10.50;99.90;;;;;;5115577;28;20050;-74
2021/12/16 13:12:40;;;;;;;107.88;47.67;;;10.60;99.90;;;;;;5076634;28;20025;-74
2021/12/16 13:15:32;;;;;;;104.80;46.80;;;10.50;99.90;;;;;;5094748;28;20023;-74
2021/12/16 13:24:41;;;;;;;115.22;49.25;;;10.50;99.90;;;;;;5095282;28;20059;-74
2021/12/16 13:27:00;;;;;;;117.85;51.78;;;10.30;99.90;;;;;;5110950;28;20027;-74
2021/12/16 13:29:34;;;;;;;110.43;49.38;;;10.30;99.90;;;;;;5111183;28;20093;-74
2021/12/16 13:32:10;;;;;;;115.00;48.92;;;10.20;99.90;;;;;;5111605;28;20051;-74
2021/12/16 13:34:54;;;;;;;113.78;49.42;;;10.20;99.90;;;;;;5092418;28;20421;-75
2021/12/16 13:37:28;;;;;;;103.82;47.33;;;10.20;99.90;;;;;;5111300;28;20050;-74
2021/12/16 13:39:59;;;;;;;111.65;48.13;;;10.30;99.90;;;;;;5111688;28;20031;-74
2021/12/16 13:42:38;;;;;;;110.25;49.53;;;10.20;99.90;;;;;;5110316;28;20027;-74
2021/12/16 13:45:12;;;;;;;110.57;49.15;;;10.20;99.90;;;;;;5110371;28;20038;-74
2021/12/16 13:48:08;;;;;;;110.13;50.03;;;10.10;99.90;;;;;;5110442;28;20076;-74
2021/12/16 14:04:55;;;;;;;113.78;50.22;;;10.00;99.90;;;;;;5108939;28;20046;-79
2021/12/16 14:07:54;;;;;;;106.95;48.60;;;10.00;99.90;;;;;;5106921;28;20044;-79
2021/12/16 14:10:28;;;;;;;112.28;48.33;;;10.00;99.90;;;;;;5107046;28;20026;-78
2021/12/16 14:16:02;;;;;;;109.78;48.35;;;10.00;99.90;;;;;;5110507;27;20359;-73
2021/12/16 14:25:16;;;;;;;118.82;49.85;;;9.90;99.90;;;;;;5069569;28;20369;-74
2021/12/16 14:42:16;;;;;;;119.47;50.38;;;9.70;99.90;;;;;;5112447;27;20350;-74
2021/12/16 14:47:56;;;;;;;116.50;51.15;;;9.70;99.90;;;;;;5130722;28;20027;-74
2021/12/16 14:50:27;;;;;;;109.47;49.33;;;9.60;99.90;;;;;;5104293;28;20032;-74
2021/12/16 14:52:53;;;;;;;122.10;48.97;;;9.60;99.90;;;;;;5111969;28;20066;-73
2021/12/16 14:55:20;;;;;;;114.85;49.47;;;9.60;99.90;;;;;;5113645;28;20022;-73
2021/12/16 14:57:50;;;;;;;111.57;47.95;;;9.60;99.90;;;;;;5110570;28;20416;-73
2021/12/16 15:00:23;;;;;;;117.05;49.25;;;9.60;99.90;;;;;;5102349;28;20038;-74
2021/12/16 15:02:57;;;;;;;116.90;50.30;;;9.60;99.90;;;;;;5111052;28;20024;-73
2021/12/16 15:08:12;;;;;;;114.18;51.15;;;9.50;99.90;;;;;;5091598;28;20425;-74
2021/12/16 15:10:38;;;;;;;115.75;49.78;;;9.60;99.90;;;;;;5089571;28;20020;-75
2021/12/16 15:13:16;;;;;;;119.43;50.95;;;9.50;99.90;;;;;;5091101;28;20110;-74
2021/12/16 15:16:58;;;;;;;117.93;50.58;;;9.50;99.90;;;;;;5074362;28;20048;-74
2021/12/16 15:34:11;;;;;;;121.35;50.95;;;9.50;99.90;;;;;;5096686;28;20111;-74
2021/12/16 15:38:39;;;;;;;134.15;53.25;;;9.50;99.90;;;;;;5088596;28;20393;-74
2021/12/16 15:40:59;;;;;;;131.35;50.50;;;9.50;99.90;;;;;;5079031;28;20036;-74
2021/12/16 15:43:31;;;;;;;132.75;54.05;;;9.50;99.90;;;;;;5105237;28;20116;-74
2021/12/16 15:45:58;;;;;;;134.00;52.65;;;9.40;99.90;;;;;;5091393;28;20090;-75
2021/12/16 15:48:28;;;;;;;133.48;54.08;;;9.40;99.90;;;;;;5070207;28;20067;-74
2021/12/16 15:51:02;;;;;;;135.65;54.15;;;9.40;99.90;;;;;;5085878;28;20024;-74
2021/12/16 15:53:32;;;;;;;149.57;57.78;;;9.50;99.90;;;;;;5081278;28;20012;-74
2021/12/16 15:56:06;;;;;;;146.07;55.65;;;9.40;99.90;;;;;;5109404;28;20057;-74
2021/12/16 15:58:38;;;;;;;154.68;57.85;;;9.50;99.90;;;;;;5071393;28;20028;-74
2021/12/16 16:01:09;;;;;;;143.15;57.38;;;9.40;99.90;;;;;;5090712;28;20028;-74
2021/12/16 16:03:36;;;;;;;149.73;58.40;;;9.40;99.90;;;;;;5080546;28;20082;-74
2021/12/16 16:06:04;;;;;;;158.15;62.88;;;9.40;99.90;;;;;;5086391;28;20033;-74
2021/12/16 16:08:34;;;;;;;160.07;60.55;;;9.40;99.90;;;;;;5070101;28;20016;-74